KRYY/RYY METAR and TAF weather

Enter ICAO airport designator
Station Type Date Time Source
KRYY METAR 2021/03/07 08:50 UTC NOAA

KRYY 070850Z AUTO VRB03KT 10SM CLR 02/M08 A3027 RMK AO2 SLP970 T00221083 51009 FZRANO $


Station Type Date Time Source
KRYY Decoded METAR 2021/03/07 08:50 UTC NOAA

Marietta, Cobb County-McCollum Field Airport, GA, United States (KRYY) 34-00-47N 084-35-55W
Mar 07, 2021 - 03:50 AM EST / 2021.03.07 0850 UTC
Wind: Variable at 3 MPH (3 KT):0
Visibility: 10 mile(s):0
Sky conditions: clear
Temperature: 36.0 F (2.2 C)
Dew Point: 17.1 F (-8.3 C)
Relative Humidity: 45%
Pressure (altimeter): 30.27 in. Hg (1025 hPa)
Pressure tendency: 0.03 inches (0.9 hPa) higher than three hours ago
ob: KRYY 070850Z AUTO VRB03KT 10SM CLR 02/M08 A3027 RMK AO2 SLP970 T00221083 51009 FZRANO
cycle: 9

Station Type Date Time Source
KRYY TAF 2021/03/07 06:22 UTC NOAA

TAF KRYY 070520Z 0706/0806 32004KT P6SM SKC
FM071400 01005KT P6SM SKC
FM071800 35009KT P6SM SKC
FM080000 34004KT P6SM SKC

Example: see airport list